Oxford, MI (48371)

11:35 AM EDT on July 30, 2016 (GMT -0400)
Hills of Oxford Condos (North M24 Oxford/Lake Orion) | | Change Station

Elev 1020 ft 42.80 °N, 83.25 °W | Updated 7 seconds ago

Light Rain
Light Rain Mist
68.0 °F
Feels Like 68.0 °F
N
0.0
Wind Variable Wind from NNE
Gusts 0.0 mph

Today
High -- | Low -- °F
--% Chance of Precip.
Yesterday
High -- | Low -- °F
Precip. -- in
Pressure 30.01 in
Visibility 5.0 miles
Clouds Scattered Clouds 1800 ft
Mostly Cloudy 7500 ft
Overcast 9000 ft
Dew Point 49 °F
Humidity 51%
Rainfall 0.09 in
Snow Depth Not available.
6:22 AM 8:55 PM
Waning Crescent, 12% visible
SPECI KPTK 301518Z 06006KT 5SM -RA BR SCT018 BKN075 OVC090 19/18 A3001 RMK AO2 P0004 T01890178
Pressure 30.01 in
Visibility 5.0 miles
Clouds Scattered Clouds 1800 ft
Mostly Cloudy 7500 ft
Overcast 9000 ft
Dew Point 49 °F
Humidity 51%
Rainfall 0.09 in
Snow Depth Not available.
6:22 AM 8:55 PM
Waning Crescent, 12% visible
SPECI KPTK 301518Z 06006KT 5SM -RA BR SCT018 BKN075 OVC090 19/18 A3001 RMK AO2 P0004 T01890178

10-Day Weather Forecast

Almanac

Astronomy

Jul. 30, 2016 Rise Set
Actual Time
Civil Twilight
Nautical Twilight
Astronomical Twilight
Moon
Length of Visible Light
Length of Day
Tomorrow will be .
, % of the Moon is Illuminated

Today's Extremes

State Highs State Lows

Community

WunderPhotos

Upload Photos

1,928,587 photos uploaded!

WunderBlog® & News

Nearby

Air Quality

  Air Quality AQ Index Pollutant
Not available.

Snow Depth

Station Depth Elevation

Earthquake Activity

City Distance Mag. Time & Date
Minimum magnitude displayed is 2.5.

Coastal Water Temperatures

Place Temperature

Stations

Nearby Weather Stations

Station Location Temp. Windchill Dew Point Humidity Wind Precip. Elev Updated Type
                   

Watches & Warnings

There are currently no watches in effect.